createdAt,value
2023-04-10T00:02:07.088Z,98640.13
2023-04-10T00:06:09.196Z,98654.81
2023-04-10T00:10:11.258Z,98653.19
2023-04-10T00:14:13.414Z,98656.75
2023-04-10T00:18:15.455Z,98647.34
2023-04-10T00:22:18.466Z,98648.19
2023-04-10T00:26:21.109Z,98648.16
2023-04-10T00:30:23.508Z,98651.59
2023-04-10T00:34:25.808Z,98652.53
2023-04-10T00:38:27.871Z,98653.44
2023-04-10T00:42:29.970Z,98657.75
2023-04-10T00:46:32.600Z,98658.56
2023-04-10T00:50:34.772Z,98655.97
2023-04-10T00:54:36.806Z,98658.56
2023-04-10T00:58:39.314Z,98663.75
2023-04-10T01:02:41.890Z,98656.03
2023-04-10T01:07:18.897Z,98650.88
2023-04-10T01:11:38.414Z,98655.16
2023-04-10T01:16:01.740Z,98655.13
2023-04-10T01:20:12.281Z,98649.06
2023-04-10T01:24:33.232Z,98653.34
2023-04-10T01:29:01.166Z,98650.84
2023-04-10T01:33:09.126Z,98643.09
2023-04-10T01:37:18.100Z,98646.59
2023-04-10T01:41:22.354Z,98648.28
2023-04-10T01:45:28.753Z,98646.56
2023-04-10T01:49:32.591Z,98636.22
2023-04-10T01:53:39.250Z,98626.75
2023-04-10T01:57:41.526Z,98617.25
2023-04-10T02:01:43.713Z,98618.09
2023-04-10T02:05:53.545Z,98617.22
2023-04-10T02:10:08.944Z,98605.16
2023-04-10T02:14:16.400Z,98605.13
2023-04-10T02:18:19.220Z,98594.78
2023-04-10T02:22:23.027Z,98591.34
2023-04-10T02:26:25.243Z,98593.94
2023-04-10T02:30:27.275Z,98597.41
2023-04-10T02:34:29.781Z,98597.41
2023-04-10T02:38:31.858Z,98604.31
2023-04-10T02:42:34.104Z,98602.59
2023-04-10T02:46:37.139Z,98607.78
2023-04-10T02:50:45.926Z,98602.59
2023-04-10T02:54:48.263Z,98606.00
2023-04-10T02:58:50.810Z,98598.28
2023-04-10T03:02:53.729Z,98598.28
2023-04-10T03:06:56.597Z,98595.69
2023-04-10T03:10:59.230Z,98593.09
2023-04-10T03:15:01.255Z,98581.88
2023-04-10T03:19:03.779Z,98584.47
2023-04-10T03:23:06.449Z,98586.19
2023-04-10T03:27:08.437Z,98584.44
2023-04-10T03:31:12.518Z,98577.53
2023-04-10T03:35:16.094Z,98562.84
2023-04-10T03:39:18.164Z,98560.25
2023-04-10T03:43:20.241Z,98558.53
2023-04-10T03:47:23.078Z,98557.69
2023-04-10T03:51:27.786Z,98560.28
2023-04-10T03:55:29.956Z,98555.09
2023-04-10T03:59:38.547Z,98552.50
2023-04-10T04:03:44.885Z,98555.09
2023-04-10T04:08:10.061Z,98556.84
2023-04-10T04:12:28.708Z,98555.97
2023-04-10T04:16:38.082Z,98563.75
2023-04-10T04:21:18.297Z,98568.09
2023-04-10T04:25:56.909Z,98569.84
2023-04-10T04:30:17.196Z,98569.00
2023-04-10T04:34:25.029Z,98562.13
2023-04-10T04:38:45.883Z,98562.16
2023-04-10T04:43:06.505Z,98569.00
2023-04-10T04:47:32.425Z,98566.41
2023-04-10T04:51:54.674Z,98574.13
2023-04-10T04:56:12.954Z,98566.34
2023-04-10T05:00:38.505Z,98581.00
2023-04-10T05:04:45.802Z,98586.19
2023-04-10T05:09:10.904Z,98578.34
2023-04-10T05:13:42.173Z,98567.97
2023-04-10T05:18:11.528Z,98571.41
2023-04-10T05:22:34.070Z,98570.41
2023-04-10T05:27:08.397Z,98573.72
2023-04-10T05:31:39.698Z,98580.41
2023-04-10T05:36:12.827Z,98568.94
2023-04-10T05:40:29.108Z,98573.06
2023-04-10T05:44:52.715Z,98574.63
2023-04-10T05:49:11.733Z,98579.59
2023-04-10T05:53:31.787Z,98580.22
2023-04-10T05:58:00.148Z,98573.84
2023-04-10T06:02:35.722Z,98564.00
2023-04-10T06:06:38.727Z,98579.75
2023-04-10T06:10:40.886Z,98564.34
2023-04-10T06:14:47.535Z,98554.19
2023-04-10T06:18:54.583Z,98552.03
2023-04-10T06:22:58.382Z,98551.19
2023-04-10T06:27:00.778Z,98541.03
2023-04-10T06:31:04.144Z,98544.56
2023-04-10T06:35:09.649Z,98545.63
2023-04-10T06:39:11.705Z,98541.16
2023-04-10T06:43:13.903Z,98536.91
2023-04-10T06:47:16.942Z,98549.50
2023-04-10T06:51:18.989Z,98549.84
2023-04-10T06:55:21.327Z,98538.63
2023-04-10T06:59:23.311Z,98531.03
2023-04-10T07:03:25.638Z,98539.00
2023-04-10T07:07:29.235Z,98541.44
2023-04-10T07:11:31.283Z,98547.88
2023-04-10T07:15:33.343Z,98560.09
2023-04-10T07:19:35.608Z,98546.38
2023-04-10T07:23:37.701Z,98549.75
2023-04-10T07:27:39.948Z,98549.16
2023-04-10T07:31:42.282Z,98546.53
2023-04-10T07:35:44.432Z,98539.25
2023-04-10T07:39:46.457Z,98539.94
2023-04-10T07:43:48.652Z,98548.59
2023-04-10T07:47:50.675Z,98544.22
2023-04-10T07:51:52.950Z,98539.03
2023-04-10T07:55:54.971Z,98532.47
2023-04-10T07:59:57.147Z,98533.78
2023-04-10T08:03:59.357Z,98528.88
2023-04-10T08:08:02.099Z,98523.13
2023-04-10T08:12:04.181Z,98526.00
2023-04-10T08:16:06.653Z,98519.84
2023-04-10T08:20:09.754Z,98521.31
2023-04-10T08:24:11.758Z,98508.13
2023-04-10T08:28:13.797Z,98498.47
2023-04-10T08:32:15.905Z,98493.03
2023-04-10T08:36:20.081Z,98483.97
2023-04-10T08:40:22.451Z,98484.28
2023-04-10T08:44:24.434Z,98489.28
2023-04-10T08:48:46.194Z,98486.50
2023-04-10T08:52:51.855Z,98495.72
2023-04-10T08:56:55.838Z,98478.75
2023-04-10T09:00:58.566Z,98479.94
2023-04-10T09:05:03.933Z,98472.47
2023-04-10T09:09:06.811Z,98466.69
2023-04-10T09:13:08.843Z,98457.69
2023-04-10T09:17:19.241Z,98450.00
2023-04-10T09:21:22.063Z,98438.47
2023-04-10T09:25:34.460Z,98431.28
2023-04-10T09:29:48.259Z,98443.59
2023-04-10T09:34:07.414Z,98422.63
2023-04-10T09:38:16.973Z,98419.72
2023-04-10T09:42:30.850Z,98420.06
2023-04-10T09:46:33.072Z,98420.00
2023-04-10T09:50:40.928Z,98412.06
2023-04-10T09:54:43.112Z,98413.94
2023-04-10T09:58:45.338Z,98398.22
2023-04-10T10:02:49.356Z,98399.63
2023-04-10T10:06:51.572Z,98378.59
2023-04-10T10:10:56.772Z,98366.91
2023-04-10T10:15:11.742Z,98355.50
2023-04-10T10:19:24.571Z,98353.50
2023-04-10T10:23:27.546Z,98344.50
2023-04-10T10:27:37.599Z,98346.25
2023-04-10T10:31:40.209Z,98335.00
2023-04-10T10:35:42.968Z,98326.69
2023-04-10T10:40:09.072Z,98323.81
2023-04-10T10:44:22.025Z,98312.22
2023-04-10T10:48:24.087Z,98302.88
2023-04-10T10:52:49.811Z,98304.50
2023-04-10T10:56:51.842Z,98302.16
2023-04-10T11:01:05.044Z,98294.81
2023-04-10T11:05:07.750Z,98281.00
2023-04-10T11:09:49.660Z,98275.19
2023-04-10T11:13:57.762Z,98248.91
2023-04-10T11:18:01.095Z,98249.03
2023-04-10T11:22:08.076Z,98243.88
2023-04-10T11:26:10.839Z,98232.59
2023-04-10T11:30:29.497Z,98242.03
2023-04-10T11:34:33.095Z,98241.69
2023-04-10T11:38:35.281Z,98242.97
2023-04-10T11:42:37.826Z,98233.50
2023-04-10T11:46:42.043Z,98214.38
2023-04-10T11:50:44.232Z,98212.47
2023-04-10T11:54:49.177Z,98207.09
2023-04-10T11:58:54.191Z,98192.38
2023-04-10T12:02:57.003Z,98182.06
2023-04-10T12:06:59.477Z,98187.22
2023-04-10T12:11:01.693Z,98184.34
2023-04-10T12:15:23.444Z,98172.03
2023-04-10T12:19:26.150Z,98169.84
2023-04-10T12:23:29.854Z,98166.66
2023-04-10T12:27:31.884Z,98162.22
2023-04-10T12:31:36.380Z,98160.41
2023-04-10T12:35:39.614Z,98152.34
2023-04-10T12:39:41.730Z,98142.44
2023-04-10T12:43:44.767Z,98134.25
2023-04-10T12:47:49.131Z,98129.81
2023-04-10T12:51:52.393Z,98124.59
2023-04-10T12:55:59.338Z,98122.81
2023-04-10T13:00:03.298Z,98110.34
2023-04-10T13:04:05.803Z,98109.28
2023-04-10T13:08:08.009Z,98100.88
2023-04-10T13:12:10.018Z,98094.63
2023-04-10T13:16:13.967Z,98091.84
2023-04-10T13:20:16.361Z,98083.56
2023-04-10T13:24:18.388Z,98083.81
2023-04-10T13:28:21.535Z,98077.03
2023-04-10T13:32:23.696Z,98061.94
2023-04-10T13:36:26.735Z,98061.84
2023-04-10T13:40:29.021Z,98048.44
2023-04-10T13:44:31.283Z,98046.53
2023-04-10T13:48:40.134Z,98030.44
2023-04-10T13:52:42.568Z,98036.84
2023-04-10T13:56:46.365Z,98026.81
2023-04-10T14:00:48.642Z,98022.97
2023-04-10T14:04:51.271Z,98009.69
2023-04-10T14:08:53.520Z,98002.56
2023-04-10T14:12:56.324Z,97996.19
2023-04-10T14:16:58.579Z,97988.94
2023-04-10T14:21:00.675Z,97991.34
2023-04-10T14:25:12.290Z,97987.19
2023-04-10T14:29:18.197Z,97973.72
2023-04-10T14:33:22.348Z,97964.63
2023-04-10T14:37:24.431Z,97957.84
2023-04-10T14:41:26.692Z,97943.81
2023-04-10T14:45:28.811Z,97942.38
2023-04-10T14:49:30.841Z,97943.66
2023-04-10T14:53:32.856Z,97933.41
2023-04-10T14:57:36.033Z,97932.75
2023-04-10T15:01:38.252Z,97918.03
2023-04-10T15:05:40.326Z,97911.53
2023-04-10T15:09:43.764Z,97897.16
2023-04-10T15:13:47.397Z,97896.47
2023-04-10T15:17:49.540Z,97885.34
2023-04-10T15:21:51.568Z,97884.53
2023-04-10T15:25:53.639Z,97874.09
2023-04-10T15:29:55.705Z,97873.59
2023-04-10T15:33:57.805Z,97846.56
2023-04-10T15:37:59.976Z,97840.00
2023-04-10T15:42:04.184Z,97820.41
2023-04-10T15:46:06.459Z,97816.03
2023-04-10T15:50:10.567Z,97809.09
2023-04-10T15:54:12.839Z,97812.25
2023-04-10T15:58:14.863Z,97812.38
2023-04-10T16:02:16.923Z,97794.91
2023-04-10T16:06:18.973Z,97788.06
2023-04-10T16:10:21.284Z,97798.09
2023-04-10T16:14:23.442Z,97788.09
2023-04-10T16:18:25.479Z,97794.47
2023-04-10T16:22:27.562Z,97787.66
2023-04-10T16:26:29.564Z,97787.06
2023-04-10T16:30:31.538Z,97787.06
2023-04-10T16:34:34.431Z,97784.50
2023-04-10T16:38:36.527Z,97788.22
2023-04-10T16:42:39.379Z,97778.91
2023-04-10T16:46:41.447Z,97757.00
2023-04-10T16:50:43.528Z,97759.75
2023-04-10T16:54:45.545Z,97752.91
2023-04-10T16:58:47.604Z,97746.31
2023-04-10T17:02:49.902Z,97738.38
2023-04-10T17:06:51.995Z,97727.72
2023-04-10T17:10:54.168Z,97723.28
2023-04-10T17:14:56.168Z,97717.69
2023-04-10T17:18:58.295Z,97716.44
2023-04-10T17:23:00.340Z,97699.50
2023-04-10T17:27:02.394Z,97706.28
2023-04-10T17:31:04.610Z,97699.19
2023-04-10T17:35:06.945Z,97700.31
2023-04-10T17:39:08.953Z,97696.41
2023-04-10T17:43:10.991Z,97682.13
2023-04-10T17:47:13.069Z,97674.91
2023-04-10T17:51:15.234Z,97664.97
2023-04-10T17:55:20.386Z,97670.00
2023-04-10T17:59:22.978Z,97665.34
2023-04-10T18:03:25.143Z,97640.38
2023-04-10T18:07:27.174Z,97654.84
2023-04-10T18:11:29.737Z,97675.41
2023-04-10T18:15:31.731Z,97679.19
2023-04-10T18:19:33.759Z,97670.53
2023-04-10T18:23:35.776Z,97654.88
2023-04-10T18:27:42.306Z,97658.69
2023-04-10T18:31:44.398Z,97661.59
2023-04-10T18:35:46.949Z,97652.09
2023-04-10T18:39:49.017Z,97649.66
2023-04-10T18:44:01.751Z,97653.31
2023-04-10T18:48:07.336Z,97668.50
2023-04-10T18:52:09.382Z,97651.81
2023-04-10T18:56:11.382Z,97650.25
2023-04-10T19:00:13.786Z,97657.41
2023-04-10T19:04:15.971Z,97673.44
2023-04-10T19:08:18.684Z,97674.38
2023-04-10T19:12:20.747Z,97678.16
2023-04-10T19:16:23.075Z,97661.56
2023-04-10T19:20:52.087Z,97657.25
2023-04-10T19:24:47.261Z,97650.47
2023-04-10T19:28:49.313Z,97659.50
2023-04-10T19:32:51.347Z,97647.47
2023-04-10T19:36:54.570Z,97647.69
2023-04-10T19:40:56.732Z,97647.88
2023-04-10T19:44:58.958Z,97630.06
2023-04-10T19:49:00.965Z,97636.19
2023-04-10T19:53:04.378Z,97633.72
2023-04-10T19:57:06.402Z,97609.44
2023-04-10T20:01:08.963Z,97600.78
2023-04-10T20:05:11.434Z,97599.47
2023-04-10T20:09:15.652Z,97586.78
2023-04-10T20:13:17.728Z,97580.22
2023-04-10T20:17:19.873Z,97575.41
2023-04-10T20:21:21.946Z,97558.41
2023-04-10T20:25:23.976Z,97545.13
2023-04-10T20:29:26.357Z,97537.28
2023-04-10T20:33:28.492Z,97557.53
2023-04-10T20:37:30.645Z,97568.50
2023-04-10T20:41:32.686Z,97560.78
2023-04-10T20:45:34.729Z,97540.63
2023-04-10T20:49:39.708Z,97529.75
2023-04-10T20:53:41.751Z,97516.84
2023-04-10T20:57:43.844Z,97531.81
2023-04-10T21:01:46.027Z,97526.69
2023-04-10T21:05:48.132Z,97514.50
2023-04-10T21:09:50.224Z,97510.16
2023-04-10T21:13:52.767Z,97494.53
2023-04-10T21:17:54.807Z,97506.13
2023-04-10T21:21:57.156Z,97496.44
2023-04-10T21:25:59.444Z,97485.91
2023-04-10T21:30:01.542Z,97454.31
2023-04-10T21:34:03.706Z,97448.28
2023-04-10T21:38:05.805Z,97458.94
2023-04-10T21:42:07.826Z,97465.06
2023-04-10T21:46:10.049Z,97449.91
2023-04-10T21:50:12.124Z,97431.56
2023-04-10T21:54:14.181Z,97429.69
2023-04-10T21:58:16.307Z,97440.69
2023-04-10T22:02:18.457Z,97433.59
2023-04-10T22:06:20.947Z,97429.13
2023-04-10T22:10:22.976Z,97451.59
2023-04-10T22:14:25.974Z,97461.84
2023-04-10T22:18:28.108Z,97464.75
2023-04-10T22:22:30.671Z,97460.69
2023-04-10T22:26:34.164Z,97458.44
2023-04-10T22:30:36.251Z,97452.56
2023-04-10T22:34:38.360Z,97437.81
2023-04-10T22:38:40.368Z,97457.94
2023-04-10T22:42:43.604Z,97439.06
2023-04-10T22:46:48.139Z,97439.41
2023-04-10T22:50:50.229Z,97439.75
2023-04-10T22:54:52.319Z,97439.94
2023-04-10T22:58:55.195Z,97451.03
2023-04-10T23:02:57.426Z,97446.03
2023-04-10T23:06:59.665Z,97465.19
2023-04-10T23:11:01.701Z,97447.72
2023-04-10T23:15:05.328Z,97463.66
2023-04-10T23:19:07.357Z,97475.44
2023-04-10T23:23:09.401Z,97499.84
2023-04-10T23:27:11.418Z,97551.19
2023-04-10T23:31:13.488Z,97546.59
2023-04-10T23:35:15.669Z,97543.94
2023-04-10T23:39:17.718Z,97515.72
2023-04-10T23:43:19.740Z,97500.59
2023-04-10T23:47:21.927Z,97483.09
2023-04-10T23:51:23.945Z,97471.03
2023-04-10T23:55:26.139Z,97472.72
2023-04-10T23:59:28.144Z,97476.31
